Montrose Regional Airport
KMTJ : now visible

Airfield :











YOU CAN JOIN US ON...

 
LOGIN :

Register | Disclaimer

   EN    FR    IT 

 









Legend :    VFR   Marginal VFR   IFR   Intensive IFR   Very Intensive IFR
Visi :
Ceiling :
>= 8 km
>= 3000ft
5 to 8 km
1000 to 3000 ft
1500m to 5 km
500 to 1000 ft
800 to 1500m
200 to 500 ft
< 800m
< 200 ft
Symbols :   Thunderstorms  Fog  Heavy snow  Heavy precipitations  Wind > 20 kt






- Airport Elevation : 5759 ft


KMTJ - Montrose Regional

CURRENT METAR :
  • 170253Z AUTO 06004KT 10SM -RA OVC065 05/M02 A2999 RMK AO2 RAB50 SLP138 P0000 60000 T00501017 51011

EXPIRED METARs :
  • 170153Z AUTO 00000KT 10SM OVC075 06/M01 A2998 RMK AO2 SLP134 T00561011
  • 170053Z AUTO 00000KT 10SM OVC070 06/00 A2996 RMK AO2 SLP129 T00560000

TAF KMTJ
Valid from the 17 at 00:00 until the 18 at 00:00 UTC


162320Z 1700/1724 VRB03KT P6SM VCSH OVC080
FM170200 VRB03KT P6SM VCSH OVC060
FM170700 VRB04KT P6SM VCSH SCT045 BKN050
FM171200 VRB04KT P6SM SCT040 BKN070
FM171800 34005KT P6SM FEW050 SCT200



MET'MAP, your aeronautical weather chart ! - Copyright ORBIFLY December 2007 - Disclaimer

ORBIFLY MET'MAP TEAM :

Programming & Development : Alexandra Zaïnal
Concept & original design : Baudouin d'Aumeries
Assistance for programming : Marc-Olivier Méhu
Technical & hardware support : Manuel Goepfert

Contact : metmap@orbifly.com




SOURCES & CREDITS :

   NOAA       Earth
Advisory